Time;durP1;ratioP1;P1;durP2;ratioP2;P2;SDS_P1;SDS_P2;PMS_P1;PMS_P2;Temp;Humidity;BMP_temperature;BMP_pressure;BME280_temperature;BME280_humidity;BME280_pressure;Samples;Min_cycle;Max_cycle;Signal;HPM_P1;HPM_P2
2022/05/18 00:00:03;;;;;;;10.43;4.57;;;17.50;99.90;;;;;;5006472;28;20050;-76
2022/05/18 00:02:29;;;;;;;12.88;5.38;;;17.40;99.90;;;;;;5006146;28;20045;-76
2022/05/18 00:04:54;;;;;;;10.18;4.80;;;17.40;99.90;;;;;;5004875;28;20053;-75
2022/05/18 00:07:20;;;;;;;6.90;4.97;;;17.30;99.90;;;;;;5005916;28;20077;-74
2022/05/18 00:09:46;;;;;;;6.10;4.07;;;17.40;99.90;;;;;;5005402;28;20045;-75
2022/05/18 00:12:11;;;;;;;9.35;4.47;;;17.30;99.90;;;;;;5006431;28;20037;-77
2022/05/18 00:14:38;;;;;;;9.50;4.75;;;17.30;99.90;;;;;;5006023;28;20050;-76
2022/05/18 00:17:04;;;;;;;7.00;4.40;;;17.30;99.90;;;;;;5006012;28;20034;-76
2022/05/18 00:19:33;;;;;;;8.90;4.55;;;17.30;99.90;;;;;;5006019;28;20049;-75
2022/05/18 00:21:59;;;;;;;10.50;4.47;;;17.20;99.90;;;;;;5005788;28;20404;-76
2022/05/18 00:24:25;;;;;;;4.72;4.10;;;17.30;99.90;;;;;;5004980;28;20042;-75
2022/05/18 00:26:51;;;;;;;6.75;4.57;;;17.20;99.90;;;;;;5005930;28;20109;-76
2022/05/18 00:29:17;;;;;;;9.55;5.07;;;17.20;99.90;;;;;;5005954;28;20052;-75
2022/05/18 00:31:43;;;;;;;10.90;4.32;;;17.20;99.90;;;;;;5006300;28;20042;-76
2022/05/18 00:34:09;;;;;;;7.45;4.20;;;17.20;99.90;;;;;;5005688;28;20042;-77
2022/05/18 00:36:35;;;;;;;12.35;4.13;;;17.20;99.90;;;;;;5005719;28;20496;-75
2022/05/18 00:39:01;;;;;;;4.70;4.05;;;17.20;99.90;;;;;;5004563;28;20052;-76
2022/05/18 00:41:27;;;;;;;6.82;4.28;;;17.10;99.90;;;;;;5004571;28;20045;-76
2022/05/18 00:43:55;;;;;;;10.13;4.47;;;17.10;99.90;;;;;;5008284;28;20085;-77
2022/05/18 00:46:21;;;;;;;8.82;5.18;;;17.20;99.90;;;;;;5009279;28;20049;-77
2022/05/18 00:48:48;;;;;;;13.05;5.25;;;17.10;99.90;;;;;;4991815;28;20104;-77
2022/05/18 00:51:27;;;;;;;10.57;4.40;;;17.10;99.90;;;;;;5009649;28;20052;-77
2022/05/18 00:54:23;;;;;;;7.57;4.60;;;17.10;99.90;;;;;;5008336;28;20473;-76
2022/05/18 00:56:53;;;;;;;6.47;4.93;;;17.00;99.90;;;;;;5008107;28;20493;-77
2022/05/18 00:59:24;;;;;;;8.10;5.40;;;17.00;99.90;;;;;;5009119;28;20045;-76
2022/05/18 01:01:51;;;;;;;7.07;4.97;;;17.00;99.90;;;;;;5009051;28;20496;-77
2022/05/18 01:04:17;;;;;;;5.32;4.18;;;17.00;99.90;;;;;;5009281;28;20402;-76
2022/05/18 01:06:57;;;;;;;8.27;6.07;;;16.90;99.90;;;;;;5009665;28;20381;-76
2022/05/18 01:09:34;;;;;;;7.10;4.90;;;16.90;99.90;;;;;;5007920;28;20160;-77
2022/05/18 01:12:00;;;;;;;11.38;7.07;;;16.90;99.90;;;;;;5008691;28;20046;-76
2022/05/18 01:14:44;;;;;;;7.53;4.90;;;16.90;99.90;;;;;;5009244;28;20042;-76
2022/05/18 01:17:13;;;;;;;8.35;4.70;;;16.90;99.90;;;;;;5007595;28;20583;-76
2022/05/18 01:19:45;;;;;;;8.13;6.17;;;16.80;99.90;;;;;;5007339;28;20172;-75
2022/05/18 01:22:23;;;;;;;7.03;5.20;;;16.80;99.90;;;;;;5008908;28;20129;-77
2022/05/18 01:25:18;;;;;;;11.50;6.95;;;16.80;99.90;;;;;;5008060;28;20073;-76
2022/05/18 01:27:43;;;;;;;5.55;4.95;;;16.70;99.90;;;;;;5008778;28;20527;-75
2022/05/18 01:30:10;;;;;;;11.15;6.38;;;16.70;99.90;;;;;;5008430;28;20046;-75
2022/05/18 01:32:42;;;;;;;7.72;6.38;;;16.60;99.90;;;;;;5008836;28;20295;-76
2022/05/18 01:35:10;;;;;;;8.07;5.57;;;16.70;99.90;;;;;;4991109;28;20038;-76
2022/05/18 01:37:36;;;;;;;10.93;5.68;;;16.60;99.90;;;;;;5007709;28;20050;-75
2022/05/18 01:40:09;;;;;;;13.45;5.35;;;16.50;99.90;;;;;;5008405;28;20124;-75
2022/05/18 01:42:53;;;;;;;7.60;5.97;;;16.50;99.90;;;;;;5023309;28;20409;-76
2022/05/18 01:45:19;;;;;;;9.13;5.72;;;16.60;99.90;;;;;;5008172;28;20045;-75
2022/05/18 01:47:48;;;;;;;7.63;5.00;;;16.50;99.90;;;;;;5008868;28;20429;-75
2022/05/18 01:50:20;;;;;;;12.45;6.25;;;16.40;99.90;;;;;;5008650;28;20058;-75
2022/05/18 01:52:46;;;;;;;9.73;6.60;;;16.50;99.90;;;;;;5007776;28;20141;-75
2022/05/18 01:55:15;;;;;;;7.45;5.53;;;16.40;99.90;;;;;;5007546;28;20041;-76
2022/05/18 01:57:41;;;;;;;11.90;5.50;;;16.40;99.90;;;;;;5007004;28;20052;-75
2022/05/18 02:00:07;;;;;;;12.73;6.65;;;16.40;99.90;;;;;;5007967;28;20045;-75
2022/05/18 02:02:33;;;;;;;9.45;6.50;;;16.40;99.90;;;;;;5008398;28;20073;-75
2022/05/18 02:04:58;;;;;;;10.35;5.63;;;16.30;99.90;;;;;;5023226;28;20092;-75
2022/05/18 02:07:24;;;;;;;9.35;6.63;;;16.30;99.90;;;;;;5006902;28;20444;-75
2022/05/18 02:09:49;;;;;;;9.43;6.57;;;16.30;99.90;;;;;;5008524;28;20037;-75
2022/05/18 02:12:15;;;;;;;11.85;6.53;;;16.30;99.90;;;;;;5008288;28;20045;-75
2022/05/18 02:14:41;;;;;;;7.53;5.95;;;16.30;99.90;;;;;;5007673;28;20049;-75
2022/05/18 02:17:06;;;;;;;9.65;6.05;;;16.30;99.90;;;;;;5006592;28;20112;-75
2022/05/18 02:19:32;;;;;;;11.18;5.95;;;16.30;99.90;;;;;;5008055;28;20050;-75
2022/05/18 02:21:58;;;;;;;7.93;6.57;;;16.20;99.90;;;;;;5008001;28;20488;-76
2022/05/18 02:24:24;;;;;;;10.38;5.78;;;16.20;99.90;;;;;;5006534;28;20074;-75
2022/05/18 02:26:49;;;;;;;11.57;8.20;;;16.20;99.90;;;;;;5007694;28;20116;-75
2022/05/18 02:29:15;;;;;;;9.15;5.82;;;16.10;99.90;;;;;;5007895;28;20445;-75
2022/05/18 02:31:41;;;;;;;8.77;5.88;;;16.10;99.90;;;;;;5007667;28;20046;-76
2022/05/18 02:34:06;;;;;;;9.63;6.38;;;16.10;99.90;;;;;;5007639;28;20134;-76
2022/05/18 02:36:32;;;;;;;11.60;7.45;;;16.10;99.90;;;;;;5007728;28;20164;-76
2022/05/18 02:38:58;;;;;;;9.68;6.53;;;16.00;99.90;;;;;;5006633;28;20392;-75
2022/05/18 02:41:23;;;;;;;10.98;7.18;;;16.00;99.90;;;;;;5006205;28;20097;-76
2022/05/18 02:43:51;;;;;;;12.48;5.97;;;16.00;99.90;;;;;;5007024;28;20046;-75
2022/05/18 02:46:19;;;;;;;9.48;7.20;;;16.00;99.90;;;;;;4989527;28;20084;-76
2022/05/18 02:48:46;;;;;;;16.23;5.90;;;16.00;99.90;;;;;;5007832;28;20053;-76
2022/05/18 02:51:13;;;;;;;11.75;5.93;;;16.00;99.90;;;;;;5007721;28;20413;-76
2022/05/18 02:53:39;;;;;;;10.98;6.38;;;16.00;99.90;;;;;;5005202;28;20060;-76
2022/05/18 02:56:08;;;;;;;9.75;6.15;;;16.00;99.90;;;;;;4989387;28;20504;-76
2022/05/18 02:58:39;;;;;;;8.07;5.32;;;16.00;99.90;;;;;;5005893;28;20173;-76
2022/05/18 03:01:09;;;;;;;10.43;5.85;;;16.00;99.90;;;;;;5006865;28;20052;-76
2022/05/18 03:03:36;;;;;;;9.63;6.10;;;16.00;99.90;;;;;;5007468;28;20385;-76
2022/05/18 03:06:03;;;;;;;10.15;6.95;;;15.90;99.90;;;;;;5007185;28;20053;-76
2022/05/18 03:08:30;;;;;;;17.52;7.00;;;15.90;99.90;;;;;;5005103;28;20052;-76
2022/05/18 03:10:56;;;;;;;12.60;6.97;;;15.80;99.90;;;;;;5006858;28;20081;-76
2022/05/18 03:13:21;;;;;;;12.77;7.00;;;15.80;99.90;;;;;;5006789;28;20422;-76
2022/05/18 03:15:47;;;;;;;9.52;5.80;;;15.70;99.90;;;;;;5006961;28;20049;-76
2022/05/18 03:18:14;;;;;;;12.38;7.40;;;15.70;99.90;;;;;;5007166;28;20046;-76
2022/05/18 03:23:34;;;;;;;12.07;7.30;;;15.60;99.90;;;;;;5005458;28;20045;-76
2022/05/18 03:26:05;;;;;;;8.68;7.45;;;15.60;99.90;;;;;;5006587;28;20092;-75
2022/05/18 03:28:31;;;;;;;11.18;7.13;;;15.60;99.90;;;;;;5005268;28;20050;-76
2022/05/18 03:30:57;;;;;;;16.27;7.82;;;15.60;99.90;;;;;;5006607;28;20041;-76
2022/05/18 03:33:23;;;;;;;11.15;7.00;;;15.50;99.90;;;;;;5004915;28;20588;-76
2022/05/18 03:35:49;;;;;;;11.98;8.13;;;15.50;99.90;;;;;;5006284;28;20389;-76
2022/05/18 03:38:16;;;;;;;11.73;6.82;;;15.50;99.90;;;;;;5004423;28;20127;-76
2022/05/18 03:40:42;;;;;;;13.80;8.30;;;15.50;99.90;;;;;;5005184;28;20058;-76
2022/05/18 03:43:07;;;;;;;9.98;6.80;;;15.50;99.90;;;;;;5006097;28;20046;-76
2022/05/18 03:45:33;;;;;;;11.05;8.80;;;15.50;99.90;;;;;;5006199;28;20116;-75
2022/05/18 03:47:59;;;;;;;14.75;8.18;;;15.40;99.90;;;;;;5006363;28;20046;-74
2022/05/18 03:50:28;;;;;;;9.23;7.68;;;15.40;99.90;;;;;;5006373;28;20562;-75
2022/05/18 03:52:55;;;;;;;14.43;7.05;;;15.40;99.90;;;;;;5005179;28;20399;-76
2022/05/18 03:55:21;;;;;;;9.05;8.07;;;15.40;99.90;;;;;;5006217;28;20099;-76
2022/05/18 03:57:47;;;;;;;11.88;8.07;;;15.40;99.90;;;;;;5006147;28;20034;-76
2022/05/18 04:00:14;;;;;;;14.52;8.07;;;15.40;99.90;;;;;;5006452;28;20619;-75
2022/05/18 04:02:40;;;;;;;11.25;8.32;;;15.50;99.90;;;;;;5005750;28;20096;-76
2022/05/18 04:05:08;;;;;;;11.15;7.55;;;15.30;99.90;;;;;;5005916;28;20278;-75
2022/05/18 04:07:34;;;;;;;12.25;7.70;;;15.40;99.90;;;;;;5005416;28;20099;-75
2022/05/18 04:10:00;;;;;;;14.75;7.05;;;15.50;99.90;;;;;;5005244;28;20117;-75
2022/05/18 04:12:27;;;;;;;14.45;8.65;;;15.50;99.90;;;;;;5006202;28;20049;-77
2022/05/18 04:14:54;;;;;;;10.30;6.85;;;15.60;99.90;;;;;;5006619;28;20051;-76
2022/05/18 04:17:23;;;;;;;9.27;7.82;;;15.60;99.90;;;;;;5006190;28;20046;-76
2022/05/18 04:19:49;;;;;;;9.25;7.70;;;16.00;99.90;;;;;;5005302;28;20057;-75
2022/05/18 04:22:15;;;;;;;13.13;7.22;;;16.00;99.90;;;;;;5022177;28;20041;-77
2022/05/18 04:24:41;;;;;;;12.48;6.95;;;16.20;99.90;;;;;;5004364;28;20235;-76
2022/05/18 04:27:06;;;;;;;13.73;8.07;;;16.00;99.90;;;;;;5005682;28;20096;-75
2022/05/18 04:29:33;;;;;;;12.70;8.27;;;16.00;99.90;;;;;;5006089;28;20037;-75
2022/05/18 04:31:59;;;;;;;10.52;7.15;;;15.90;99.90;;;;;;5004174;28;20137;-76
2022/05/18 04:34:26;;;;;;;10.38;7.70;;;15.90;99.90;;;;;;5005588;28;20251;-76
2022/05/18 04:36:52;;;;;;;10.15;6.82;;;16.00;99.90;;;;;;5005622;28;20042;-75
2022/05/18 04:39:18;;;;;;;10.25;6.90;;;16.80;99.90;;;;;;5004691;28;20125;-75
2022/05/18 04:41:43;;;;;;;8.90;7.25;;;16.90;99.90;;;;;;5004234;28;20138;-75
2022/05/18 04:44:09;;;;;;;13.40;8.55;;;16.40;99.90;;;;;;5004119;28;20068;-75
2022/05/18 04:46:35;;;;;;;11.13;8.18;;;16.40;99.90;;;;;;5005388;28;20372;-75
2022/05/18 04:49:01;;;;;;;14.23;8.45;;;16.40;99.90;;;;;;5005629;28;20124;-75
2022/05/18 04:51:27;;;;;;;11.63;8.00;;;16.30;99.90;;;;;;5005086;28;20046;-74
2022/05/18 04:53:53;;;;;;;10.68;8.30;;;16.30;99.90;;;;;;5004160;28;20050;-75
2022/05/18 04:56:19;;;;;;;9.90;8.65;;;16.30;99.90;;;;;;5005426;28;20403;-75
2022/05/18 04:58:44;;;;;;;13.07;9.00;;;16.20;99.90;;;;;;5005488;28;20129;-76
2022/05/18 05:01:10;;;;;;;17.10;8.27;;;16.30;99.90;;;;;;5005110;28;20046;-75
2022/05/18 05:03:37;;;;;;;11.77;8.68;;;16.50;99.90;;;;;;5004191;28;20089;-76
2022/05/18 05:06:04;;;;;;;15.60;10.02;;;16.60;99.90;;;;;;5005323;28;20073;-76
2022/05/18 05:08:31;;;;;;;10.77;8.40;;;16.40;99.90;;;;;;4986972;28;20054;-76
2022/05/18 05:10:57;;;;;;;9.60;8.60;;;16.30;99.90;;;;;;5005342;28;20041;-74
2022/05/18 05:13:23;;;;;;;13.82;9.73;;;16.30;99.90;;;;;;5005130;28;20049;-75
2022/05/18 05:15:54;;;;;;;11.57;9.25;;;16.20;99.90;;;;;;4987642;28;20048;-75
2022/05/18 05:18:20;;;;;;;14.48;10.20;;;16.20;99.90;;;;;;5019620;28;20046;-75
2022/05/18 05:20:45;;;;;;;11.23;8.68;;;16.30;99.90;;;;;;5005641;28;20260;-75
2022/05/18 05:23:11;;;;;;;13.30;9.88;;;16.50;99.90;;;;;;5004256;28;20045;-75
2022/05/18 05:25:37;;;;;;;10.02;9.00;;;16.40;99.90;;;;;;5005018;28;20471;-76
2022/05/18 05:28:07;;;;;;;10.90;8.30;;;16.50;99.90;;;;;;5004678;28;20742;-76
2022/05/18 05:30:33;;;;;;;10.27;9.27;;;16.60;99.90;;;;;;5006529;28;20050;-76
2022/05/18 05:32:59;;;;;;;14.07;9.10;;;16.80;99.90;;;;;;5008627;28;20052;-76
2022/05/18 05:35:24;;;;;;;15.35;10.70;;;16.90;99.90;;;;;;5008525;28;20041;-76
2022/05/18 05:37:50;;;;;;;14.63;10.00;;;17.00;99.90;;;;;;5007890;28;20081;-76
2022/05/18 05:40:16;;;;;;;14.77;10.10;;;17.10;99.90;;;;;;5008546;28;20141;-76
2022/05/18 05:42:42;;;;;;;10.43;9.38;;;17.10;99.90;;;;;;4991320;28;20037;-76
2022/05/18 05:45:09;;;;;;;12.63;10.20;;;17.10;99.90;;;;;;5007900;28;20102;-75
2022/05/18 05:47:34;;;;;;;12.32;9.40;;;17.10;99.90;;;;;;5008688;28;20115;-76
2022/05/18 05:50:00;;;;;;;12.90;10.27;;;17.20;99.90;;;;;;5008142;28;20034;-76
2022/05/18 05:52:26;;;;;;;18.08;9.65;;;17.20;99.90;;;;;;5022445;28;20041;-76
2022/05/18 05:54:51;;;;;;;16.02;10.73;;;17.10;99.90;;;;;;5008336;28;20049;-74
2022/05/18 05:57:17;;;;;;;13.10;9.80;;;17.10;99.90;;;;;;5006824;28;20045;-74
2022/05/18 05:59:42;;;;;;;12.10;10.90;;;17.10;99.90;;;;;;5008445;28;20433;-75
2022/05/18 06:02:12;;;;;;;15.15;10.27;;;17.10;99.90;;;;;;5006588;28;20056;-74
2022/05/18 06:04:38;;;;;;;13.38;9.95;;;17.20;99.90;;;;;;5007728;28;20096;-75
2022/05/18 06:07:04;;;;;;;14.05;10.95;;;17.30;99.90;;;;;;5006986;28;20603;-74
2022/05/18 06:09:29;;;;;;;14.38;10.40;;;17.30;99.90;;;;;;5007808;28;20095;-75
2022/05/18 06:11:55;;;;;;;16.60;10.82;;;17.30;99.90;;;;;;5007980;28;20437;-76
2022/05/18 06:14:21;;;;;;;14.90;10.45;;;17.40;99.90;;;;;;5006638;28;20398;-76
2022/05/18 06:16:47;;;;;;;14.65;11.52;;;17.50;99.90;;;;;;5007737;28;20140;-76
2022/05/18 06:19:17;;;;;;;12.73;11.07;;;17.60;99.90;;;;;;5007849;28;20042;-76
2022/05/18 06:21:43;;;;;;;16.33;12.38;;;17.60;99.90;;;;;;5005915;28;20050;-74
2022/05/18 06:24:10;;;;;;;13.57;11.98;;;17.80;99.90;;;;;;5006008;28;20046;-74
2022/05/18 06:26:36;;;;;;;15.30;10.63;;;18.00;99.90;;;;;;5007415;28;20390;-74
2022/05/18 06:29:03;;;;;;;12.93;11.52;;;18.00;99.90;;;;;;5007779;28;20038;-74
2022/05/18 06:31:29;;;;;;;14.50;11.65;;;18.20;99.90;;;;;;5006337;28;20050;-74
2022/05/18 06:33:55;;;;;;;13.85;10.93;;;18.40;99.90;;;;;;5007617;28;20496;-75
2022/05/18 06:36:20;;;;;;;15.13;11.48;;;18.60;99.90;;;;;;5007308;28;20124;-75
2022/05/18 06:38:46;;;;;;;16.88;12.85;;;18.80;99.90;;;;;;5006872;28;20057;-76
2022/05/18 06:41:24;;;;;;;15.70;12.00;;;18.80;99.90;;;;;;5007457;28;20077;-76
2022/05/18 06:43:55;;;;;;;18.77;13.32;;;18.80;99.90;;;;;;5007426;28;20033;-76
2022/05/18 06:46:22;;;;;;;15.00;13.50;;;18.90;99.90;;;;;;5007134;28;20042;-76
2022/05/18 06:48:48;;;;;;;16.00;11.18;;;19.00;99.90;;;;;;5007305;28;20041;-76
2022/05/18 06:51:17;;;;;;;17.17;12.45;;;19.10;99.90;;;;;;5007520;28;20061;-75
2022/05/18 06:53:43;;;;;;;14.55;11.45;;;19.20;99.90;;;;;;5006581;28;20053;-76
2022/05/18 06:56:09;;;;;;;12.85;11.48;;;19.30;99.90;;;;;;5007293;28;20053;-76
2022/05/18 06:58:34;;;;;;;18.08;11.80;;;19.50;99.90;;;;;;4989616;28;20544;-76
2022/05/18 07:01:01;;;;;;;21.27;11.13;;;19.70;99.90;;;;;;5007149;28;20049;-76
2022/05/18 07:03:27;;;;;;;18.55;11.65;;;20.10;99.90;;;;;;5005673;28;20058;-76
2022/05/18 07:05:52;;;;;;;15.57;9.95;;;21.70;99.90;;;;;;5006867;28;20113;-74
2022/05/18 07:08:18;;;;;;;14.73;11.45;;;22.40;99.90;;;;;;5005628;28;20556;-74
2022/05/18 07:10:44;;;;;;;15.35;10.50;;;23.00;99.90;;;;;;5007236;28;20045;-74
2022/05/18 07:13:10;;;;;;;11.38;8.60;;;23.90;99.90;;;;;;5006465;28;20508;-75
2022/05/18 07:15:36;;;;;;;11.25;8.88;;;24.10;99.90;;;;;;5005453;28;20519;-75
2022/05/18 07:18:01;;;;;;;10.93;7.90;;;24.50;99.90;;;;;;5006562;28;20053;-75
2022/05/18 07:20:27;;;;;;;9.75;7.75;;;25.00;99.90;;;;;;5006525;28;20060;-75
2022/05/18 07:22:53;;;;;;;11.00;7.75;;;25.20;99.90;;;;;;5020498;28;20046;-75
2022/05/18 07:25:19;;;;;;;13.77;6.95;;;25.80;99.90;;;;;;5005232;28;20112;-74
2022/05/18 07:27:45;;;;;;;16.02;8.07;;;25.80;99.90;;;;;;5006898;28;20050;-75
2022/05/18 07:30:13;;;;;;;9.40;6.38;;;25.90;99.90;;;;;;5006467;28;20045;-75
2022/05/18 07:32:38;;;;;;;14.07;8.93;;;25.80;99.90;;;;;;5006550;28;20412;-75
2022/05/18 07:35:04;;;;;;;14.65;8.38;;;25.80;99.90;;;;;;5006043;28;20048;-75
2022/05/18 07:37:30;;;;;;;11.77;6.50;;;24.80;99.90;;;;;;5005328;28;20121;-75
2022/05/18 07:39:56;;;;;;;11.23;6.55;;;24.30;99.90;;;;;;5004771;28;20111;-75
2022/05/18 07:42:21;;;;;;;8.13;6.00;;;24.20;99.90;;;;;;5005406;28;20049;-75
2022/05/18 07:44:47;;;;;;;13.25;8.25;;;23.80;99.90;;;;;;5006229;28;20049;-75
2022/05/18 07:47:13;;;;;;;9.27;6.53;;;23.50;99.90;;;;;;5007256;28;20065;-76
2022/05/18 07:49:41;;;;;;;9.65;6.40;;;23.40;99.90;;;;;;5022615;28;20045;-75
2022/05/18 07:52:07;;;;;;;10.10;6.95;;;23.60;99.90;;;;;;5003805;28;20053;-75
2022/05/18 07:54:33;;;;;;;12.13;6.40;;;23.80;99.90;;;;;;5006270;28;20066;-75
2022/05/18 07:57:00;;;;;;;7.90;6.50;;;24.00;99.90;;;;;;5006752;28;20404;-75
2022/05/18 07:59:26;;;;;;;12.07;6.63;;;23.90;99.90;;;;;;5005866;28;20432;-75
2022/05/18 08:01:52;;;;;;;9.45;6.32;;;23.80;99.90;;;;;;5021088;28;20049;-75
2022/05/18 08:04:17;;;;;;;11.45;7.05;;;23.80;99.90;;;;;;5004404;28;20045;-76
2022/05/18 08:06:43;;;;;;;8.90;5.95;;;23.80;99.90;;;;;;5020253;28;20104;-75
2022/05/18 08:09:09;;;;;;;11.27;6.40;;;24.00;99.90;;;;;;5005886;28;20041;-76
2022/05/18 08:17:03;;;;;;;10.38;7.43;;;24.20;99.90;;;;;;5005547;28;20462;-74
2022/05/18 08:19:29;;;;;;;9.45;8.32;;;24.20;99.90;;;;;;5006178;28;20165;-76
2022/05/18 08:21:55;;;;;;;13.35;8.27;;;24.10;99.90;;;;;;5004965;28;20046;-75
2022/05/18 08:24:21;;;;;;;20.63;10.65;;;24.20;99.90;;;;;;5005575;28;20053;-77
2022/05/18 08:26:47;;;;;;;12.38;7.07;;;24.20;99.90;;;;;;5004255;28;20046;-76
2022/05/18 08:29:13;;;;;;;12.18;7.15;;;24.50;99.90;;;;;;5006274;28;20050;-75
2022/05/18 08:31:39;;;;;;;12.85;7.40;;;24.60;99.90;;;;;;5005592;28;20073;-75
2022/05/18 08:34:04;;;;;;;11.70;8.07;;;24.60;99.90;;;;;;5005800;28;20493;-75
2022/05/18 08:36:31;;;;;;;9.43;7.18;;;24.70;99.90;;;;;;5004836;28;20082;-75
2022/05/18 08:38:57;;;;;;;11.43;7.90;;;24.70;99.90;;;;;;5005360;28;20456;-75
2022/05/18 08:41:42;;;;;;;14.15;7.00;;;24.60;99.90;;;;;;5005246;28;20129;-75
2022/05/18 08:44:19;;;;;;;16.23;8.45;;;24.60;99.90;;;;;;5005219;28;20136;-75
2022/05/18 08:46:57;;;;;;;11.32;7.75;;;24.50;99.90;;;;;;5004898;28;20046;-75
2022/05/18 08:49:35;;;;;;;12.18;8.98;;;24.60;99.90;;;;;;5005290;28;20054;-75
2022/05/18 08:52:03;;;;;;;11.02;8.23;;;24.60;99.90;;;;;;5004182;28;20054;-75
2022/05/18 08:55:03;;;;;;;10.35;8.77;;;24.50;99.90;;;;;;5005301;28;20057;-76
2022/05/18 08:57:35;;;;;;;13.77;10.40;;;24.70;99.90;;;;;;5005596;28;20057;-75
2022/05/18 09:00:18;;;;;;;15.23;10.27;;;24.50;99.90;;;;;;5005529;28;20092;-76
2022/05/18 09:02:45;;;;;;;19.27;11.52;;;24.40;99.90;;;;;;5005600;28;20052;-76
2022/05/18 09:05:33;;;;;;;14.25;12.02;;;24.30;99.90;;;;;;5007580;28;20053;-75
2022/05/18 09:08:06;;;;;;;18.85;11.95;;;24.30;99.90;;;;;;5007643;28;20509;-76
2022/05/18 09:10:38;;;;;;;14.77;11.02;;;24.50;99.90;;;;;;5008106;28;20050;-76
2022/05/18 09:13:05;;;;;;;11.65;10.45;;;24.70;99.90;;;;;;5009210;28;20038;-76
2022/05/18 09:16:05;;;;;;;21.92;11.48;;;24.70;99.90;;;;;;5009066;28;20046;-77
2022/05/18 09:18:55;;;;;;;11.98;10.30;;;24.80;99.90;;;;;;5009045;28;20046;-76
2022/05/18 09:21:54;;;;;;;17.50;13.20;;;25.00;99.90;;;;;;5007658;28;20061;-78
2022/05/18 09:25:08;;;;;;;16.35;11.50;;;25.10;99.90;;;;;;5007330;28;20567;-76
2022/05/18 09:27:38;;;;;;;15.05;11.13;;;25.10;99.90;;;;;;4999792;28;20054;-75
2022/05/18 09:30:22;;;;;;;15.73;11.60;;;25.00;99.90;;;;;;5007254;28;20181;-74
2022/05/18 09:33:16;;;;;;;16.80;12.43;;;25.10;99.90;;;;;;5008676;28;20052;-76
2022/05/18 09:35:49;;;;;;;11.23;9.93;;;25.00;99.90;;;;;;5008917;28;20046;-76
2022/05/18 09:38:18;;;;;;;15.82;11.50;;;25.20;99.90;;;;;;5007699;28;20156;-77
2022/05/18 09:40:47;;;;;;;11.27;9.80;;;25.20;99.90;;;;;;5008708;28;20049;-77
2022/05/18 09:43:39;;;;;;;15.23;11.38;;;24.90;99.90;;;;;;5009298;28;20631;-76
2022/05/18 09:46:10;;;;;;;15.57;11.68;;;24.90;99.90;;;;;;5006909;28;20057;-75
2022/05/18 09:48:44;;;;;;;16.17;11.82;;;25.20;99.90;;;;;;5008542;28;20804;-75
2022/05/18 09:51:10;;;;;;;16.10;12.23;;;24.90;99.90;;;;;;5007167;28;20069;-76
2022/05/18 09:53:38;;;;;;;17.23;10.85;;;25.00;99.90;;;;;;5008486;28;20060;-75
2022/05/18 09:56:11;;;;;;;14.95;11.68;;;25.10;99.90;;;;;;5006757;28;20099;-75
2022/05/18 09:58:41;;;;;;;12.27;10.90;;;25.20;99.90;;;;;;5008088;28;20050;-76
2022/05/18 10:09:43;;;;;;;17.63;12.20;;;25.20;99.90;;;;;;5006500;28;20056;-75
2022/05/18 10:12:43;;;;;;;17.58;13.18;;;25.20;99.90;;;;;;5006149;28;20046;-77
2022/05/18 10:15:26;;;;;;;15.07;12.23;;;25.00;99.90;;;;;;5007450;28;20385;-76
2022/05/18 10:18:13;;;;;;;16.55;13.00;;;25.40;99.90;;;;;;5006094;28;20049;-76
2022/05/18 10:20:40;;;;;;;14.85;12.18;;;25.40;99.90;;;;;;5006323;28;20054;-76
2022/05/18 10:23:33;;;;;;;15.68;12.50;;;25.40;99.90;;;;;;5006681;28;20042;-75
2022/05/18 10:26:00;;;;;;;17.77;12.23;;;25.30;99.90;;;;;;5006526;28;20631;-76
2022/05/18 10:28:29;;;;;;;26.65;12.32;;;25.50;99.90;;;;;;5007386;28;20092;-76
2022/05/18 10:31:03;;;;;;;18.50;10.27;;;25.50;99.90;;;;;;5007961;28;20042;-75
2022/05/18 10:33:38;;;;;;;17.85;10.45;;;25.60;99.90;;;;;;5007768;28;20579;-75
2022/05/18 10:36:27;;;;;;;11.75;10.38;;;25.60;99.90;;;;;;5006533;28;20049;-75
2022/05/18 10:38:56;;;;;;;18.90;10.15;;;25.80;99.90;;;;;;5007151;28;20046;-75
2022/05/18 10:41:28;;;;;;;13.50;10.50;;;25.80;99.90;;;;;;5007601;28;20192;-75
2022/05/18 10:44:02;;;;;;;15.40;9.93;;;25.70;99.90;;;;;;5005926;28;20112;-76
2022/05/18 10:46:31;;;;;;;16.77;8.98;;;25.80;99.90;;;;;;5006103;28;20054;-76
2022/05/18 10:49:00;;;;;;;11.25;8.07;;;25.90;99.90;;;;;;5007148;28;20077;-77
2022/05/18 10:51:37;;;;;;;15.75;8.32;;;25.80;99.90;;;;;;5005651;28;20405;-76
2022/05/18 10:54:25;;;;;;;14.07;9.73;;;25.80;99.90;;;;;;5005471;28;20069;-75
2022/05/18 10:56:52;;;;;;;14.68;8.88;;;25.80;99.90;;;;;;5006122;28;20050;-75
2022/05/18 10:59:48;;;;;;;11.85;8.82;;;26.10;99.90;;;;;;5005526;28;20069;-75
2022/05/18 11:02:43;;;;;;;13.20;9.52;;;26.00;99.90;;;;;;5006039;28;20100;-76
2022/05/18 11:05:36;;;;;;;16.77;11.77;;;26.10;99.90;;;;;;5006456;28;20050;-76
2022/05/18 11:08:06;;;;;;;14.68;7.82;;;25.80;99.90;;;;;;5005867;28;20049;-76
2022/05/18 11:10:44;;;;;;;16.67;9.13;;;26.20;99.90;;;;;;5007207;28;20046;-76
2022/05/18 11:13:46;;;;;;;13.80;9.48;;;26.10;99.90;;;;;;5005370;28;20501;-75
2022/05/18 11:16:21;;;;;;;9.77;8.18;;;26.20;99.90;;;;;;5001818;28;20058;-75
2022/05/18 11:18:59;;;;;;;9.65;8.25;;;26.10;99.90;;;;;;5006649;28;20045;-76
2022/05/18 11:21:46;;;;;;;11.32;8.30;;;26.10;99.90;;;;;;5003994;28;20508;-77
2022/05/18 11:24:35;;;;;;;9.63;7.93;;;26.20;99.90;;;;;;5007186;28;20042;-75
2022/05/18 11:27:33;;;;;;;9.15;7.78;;;26.30;99.90;;;;;;5006083;28;20089;-76
2022/05/18 11:30:13;;;;;;;16.20;10.00;;;26.20;99.90;;;;;;5006500;28;20050;-77
2022/05/18 11:33:03;;;;;;;9.48;8.15;;;26.20;99.90;;;;;;5006288;28;20619;-76
2022/05/18 11:35:57;;;;;;;12.25;9.07;;;25.80;99.90;;;;;;5006784;28;20187;-76
2022/05/18 11:38:28;;;;;;;15.68;8.63;;;25.80;99.90;;;;;;5005984;28;20155;-75
2022/05/18 11:41:11;;;;;;;16.88;9.18;;;26.00;99.90;;;;;;5006259;28;20592;-76
2022/05/18 11:44:05;;;;;;;13.73;8.30;;;26.20;99.90;;;;;;5006611;28;20053;-76
2022/05/18 11:46:30;;;;;;;14.30;8.27;;;25.80;99.90;;;;;;5006476;28;20407;-77
2022/05/18 11:49:17;;;;;;;12.23;10.23;;;25.80;99.90;;;;;;5006014;28;20132;-77
2022/05/18 11:52:01;;;;;;;14.10;10.20;;;25.60;99.90;;;;;;5004006;28;20483;-78
2022/05/18 11:54:51;;;;;;;10.93;8.27;;;25.60;99.90;;;;;;5006041;28;20060;-76
2022/05/18 11:57:36;;;;;;;10.90;9.45;;;25.60;99.90;;;;;;5006086;28;20511;-77
2022/05/18 12:00:12;;;;;;;19.50;12.25;;;25.70;99.90;;;;;;5005562;28;20050;-76
2022/05/18 12:03:01;;;;;;;19.65;13.95;;;26.00;99.90;;;;;;5006231;28;20042;-76
2022/05/18 12:05:34;;;;;;;15.38;12.82;;;26.00;99.90;;;;;;5004847;28;20049;-76
2022/05/18 12:08:29;;;;;;;17.05;14.95;;;26.10;99.90;;;;;;5004705;28;20046;-77
2022/05/18 12:11:21;;;;;;;16.77;13.23;;;25.80;99.90;;;;;;4996905;28;20504;-76
2022/05/18 12:14:18;;;;;;;19.27;16.05;;;26.10;99.90;;;;;;5005557;28;20552;-77
2022/05/18 12:17:05;;;;;;;17.02;14.05;;;25.70;99.90;;;;;;5004764;28;20054;-77
2022/05/18 12:19:57;;;;;;;15.90;12.02;;;25.30;99.90;;;;;;5005926;28;20048;-76
2022/05/18 12:22:38;;;;;;;16.50;10.73;;;25.20;99.90;;;;;;5003527;28;20073;-77
2022/05/18 12:25:07;;;;;;;16.50;10.73;;;25.40;99.90;;;;;;5005807;28;20038;-76
2022/05/18 12:27:33;;;;;;;18.63;12.20;;;25.40;99.90;;;;;;5004764;28;20139;-77
2022/05/18 12:30:05;;;;;;;17.17;11.18;;;25.40;99.90;;;;;;5005721;28;20505;-77
2022/05/18 12:32:31;;;;;;;22.17;12.48;;;25.40;99.90;;;;;;5005750;28;20046;-76
2022/05/18 12:35:25;;;;;;;22.63;11.68;;;25.80;99.90;;;;;;5005657;28;20073;-77
2022/05/18 12:38:20;;;;;;;12.43;9.63;;;25.80;99.90;;;;;;5004757;28;20129;-77
2022/05/18 12:41:02;;;;;;;14.38;10.05;;;25.60;99.90;;;;;;5008601;28;20058;-75
2022/05/18 12:43:37;;;;;;;13.90;10.45;;;25.70;99.90;;;;;;5009364;28;20053;-76
2022/05/18 12:46:10;;;;;;;16.42;10.27;;;25.60;99.90;;;;;;5009164;28;20084;-76
2022/05/18 12:48:43;;;;;;;13.40;11.02;;;25.60;99.90;;;;;;5008640;28;20045;-76
2022/05/18 12:51:11;;;;;;;14.18;9.68;;;25.30;99.90;;;;;;5008339;28;20057;-75
2022/05/18 12:54:18;;;;;;;17.70;9.75;;;25.30;99.90;;;;;;5009594;28;20054;-75
2022/05/18 12:57:08;;;;;;;19.17;10.98;;;25.40;99.90;;;;;;4995173;28;20144;-76
2022/05/18 12:59:46;;;;;;;15.65;11.20;;;25.00;99.90;;;;;;5009416;28;20404;-77
2022/05/18 13:02:32;;;;;;;14.43;11.25;;;25.20;99.90;;;;;;5009803;28;20045;-76
2022/05/18 13:04:59;;;;;;;21.48;15.48;;;25.40;99.90;;;;;;5008170;28;20049;-76
2022/05/18 13:07:29;;;;;;;21.70;15.40;;;25.10;99.90;;;;;;5007914;28;20103;-77
2022/05/18 13:10:08;;;;;;;;;;;24.90;99.90;;;;;;5009561;28;20065;-76
2022/05/18 13:13:01;;;;;;;20.67;14.68;;;24.80;99.90;;;;;;5009159;28;19928;-76